Time,TemperatureF,DewpointF,PressureIn,WindDirection,WindDirectionDegrees,WindSpeedMPH,WindSpeedGustMPH,Humidity,HourlyPrecipIn,Conditions,Clouds,dailyrainin,SoftwareType,DateUTC
2013-07-05 00:00:00,76.1,68.7,29.92,WNW,284,3.0,3.0,78,0.00,,,0.00,Wunderground v.1.15,2013-07-05 04:00:00,
2013-07-05 00:10:00,76.1,68.7,29.93,West,259,3.0,3.0,78,0.00,,,0.00,Wunderground v.1.15,2013-07-05 04:10:00,
2013-07-05 00:20:00,76.2,68.5,29.92,WNW,288,3.0,3.0,77,0.00,,,0.00,Wunderground v.1.15,2013-07-05 04:20:00,
2013-07-05 00:30:00,76.2,68.5,29.92,WNW,285,2.0,5.0,77,0.00,,,0.00,Wunderground v.1.15,2013-07-05 04:30:00,
2013-07-05 00:40:00,76.1,68.7,29.92,WNW,284,3.0,4.0,78,0.00,,,0.00,Wunderground v.1.15,2013-07-05 04:40:00,
2013-07-05 00:50:00,75.8,68.8,29.92,West,260,1.0,3.0,79,0.00,,,0.00,Wunderground v.1.15,2013-07-05 04:50:00,
2013-07-05 01:00:00,75.7,68.7,29.92,WSW,257,3.0,3.0,79,0.00,,,0.00,Wunderground v.1.15,2013-07-05 05:00:00,
2013-07-05 01:10:00,75.5,68.9,29.92,WNW,290,2.0,3.0,80,0.00,,,0.00,Wunderground v.1.15,2013-07-05 05:10:00,
2013-07-05 01:20:00,75.4,69.2,29.92,West,275,3.0,5.0,81,0.00,,,0.00,Wunderground v.1.15,2013-07-05 05:20:00,
2013-07-05 01:30:00,75.0,69.5,29.92,West,269,3.0,4.0,83,0.00,,,0.00,Wunderground v.1.15,2013-07-05 05:30:00,
2013-07-05 01:40:00,74.3,69.5,29.92,SW,232,2.0,3.0,85,0.00,,,0.00,Wunderground v.1.15,2013-07-05 05:40:00,
2013-07-05 01:50:00,73.4,69.3,29.92,South,191,2.0,4.0,87,0.00,,,0.00,Wunderground v.1.15,2013-07-05 05:50:00,
2013-07-05 02:00:00,73.1,69.0,29.92,SW,232,2.0,6.0,87,0.00,,,0.00,Wunderground v.1.15,2013-07-05 06:00:00,
2013-07-05 02:10:00,73.3,69.2,29.92,SW,233,2.0,3.0,87,0.00,,,0.00,Wunderground v.1.15,2013-07-05 06:10:00,
2013-07-05 02:20:00,73.5,69.1,29.92,WSW,244,3.0,4.0,86,0.00,,,0.00,Wunderground v.1.15,2013-07-05 06:20:00,
2013-07-05 02:30:00,73.9,69.1,29.92,WSW,238,5.0,5.0,85,0.00,,,0.00,Wunderground v.1.15,2013-07-05 06:30:00,
2013-07-05 02:40:00,74.0,68.9,29.92,WNW,286,3.0,3.0,84,0.00,,,0.00,Wunderground v.1.15,2013-07-05 06:40:00,
2013-07-05 02:50:00,74.0,68.9,29.92,West,273,3.0,3.0,84,0.00,,,0.00,Wunderground v.1.15,2013-07-05 06:50:00,
2013-07-05 03:00:00,73.8,68.7,29.92,West,269,3.0,3.0,84,0.00,,,0.00,Wunderground v.1.15,2013-07-05 07:00:00,
2013-07-05 03:10:00,73.5,68.4,29.92,WSW,251,1.0,3.0,84,0.00,,,0.00,Wunderground v.1.15,2013-07-05 07:10:00,
2013-07-05 03:20:00,73.4,68.3,29.92,WSW,242,3.0,3.0,84,0.00,,,0.00,Wunderground v.1.15,2013-07-05 07:20:00,
2013-07-05 03:30:00,73.1,68.3,29.92,WSW,257,2.0,2.0,85,0.00,,,0.00,Wunderground v.1.15,2013-07-05 07:30:00,
2013-07-05 03:40:00,72.9,68.1,29.92,West,275,2.0,3.0,85,0.00,,,0.00,Wunderground v.1.15,2013-07-05 07:40:00,
2013-07-05 03:50:00,72.8,68.4,29.92,West,263,2.0,2.0,86,0.00,,,0.00,Wunderground v.1.15,2013-07-05 07:50:00,
2013-07-05 04:00:00,72.5,68.4,29.92,West,263,0.0,0.0,87,0.00,,,0.00,Wunderground v.1.15,2013-07-05 08:00:00,
2013-07-05 04:10:00,72.1,68.0,29.92,WSW,247,0.0,2.0,87,0.00,,,0.00,Wunderground v.1.15,2013-07-05 08:10:00,
2013-07-05 04:20:00,71.9,68.2,29.92,NW,305,1.0,1.0,88,0.00,,,0.00,Wunderground v.1.15,2013-07-05 08:20:00,
2013-07-05 04:30:00,71.8,68.1,29.92,WSW,254,2.0,2.0,88,0.00,,,0.00,Wunderground v.1.15,2013-07-05 08:30:00,
2013-07-05 04:40:00,71.6,67.9,29.92,WSW,255,3.0,3.0,88,0.00,,,0.00,Wunderground v.1.15,2013-07-05 08:40:00,
2013-07-05 04:50:00,71.5,67.8,29.92,WSW,257,5.0,7.0,88,0.00,,,0.00,Wunderground v.1.15,2013-07-05 08:50:00,
2013-07-05 05:10:00,71.1,67.7,29.94,West,260,3.0,4.0,89,0.00,,,0.00,Wunderground v.1.15,2013-07-05 09:10:00,
2013-07-05 05:20:00,71.2,67.8,29.94,NW,325,2.0,4.0,89,0.00,,,0.00,Wunderground v.1.15,2013-07-05 09:20:00,
2013-07-05 05:30:00,71.3,67.9,29.94,West,270,3.0,5.0,89,0.00,,,0.00,Wunderground v.1.15,2013-07-05 09:30:00,
2013-07-05 05:40:00,71.4,67.7,29.93,WNW,294,3.0,3.0,88,0.00,,,0.00,Wunderground v.1.15,2013-07-05 09:40:00,
2013-07-05 06:00:00,71.4,67.7,29.93,West,263,2.0,2.0,88,0.00,,,0.00,Wunderground v.1.15,2013-07-05 10:00:00,
2013-07-05 06:10:00,71.3,67.9,29.93,SW,225,2.0,5.0,89,0.00,,,0.00,Wunderground v.1.15,2013-07-05 10:10:00,
2013-07-05 06:20:00,71.3,67.6,29.93,SW,228,5.0,6.0,88,0.00,,,0.00,Wunderground v.1.15,2013-07-05 10:20:00,
2013-07-05 06:30:00,71.5,67.8,29.93,SW,233,6.0,6.0,88,0.00,,,0.00,Wunderground v.1.15,2013-07-05 10:30:00,
2013-07-05 06:40:00,71.7,68.0,29.93,SW,219,3.0,3.0,88,0.00,,,0.00,Wunderground v.1.15,2013-07-05 10:40:00,
2013-07-05 06:50:00,71.8,68.1,29.94,SW,230,1.0,1.0,88,0.00,,,0.00,Wunderground v.1.15,2013-07-05 10:50:00,
2013-07-05 07:00:00,72.1,67.7,29.94,West,272,4.0,5.0,86,0.00,,,0.00,Wunderground v.1.15,2013-07-05 11:00:00,
2013-07-05 07:10:00,72.4,68.0,29.94,WNW,283,5.0,5.0,86,0.00,,,0.00,Wunderground v.1.15,2013-07-05 11:10:00,
2013-07-05 07:20:00,72.5,68.1,29.94,West,272,2.0,2.0,86,0.00,,,0.00,Wunderground v.1.15,2013-07-05 11:20:00,
2013-07-05 07:30:00,72.6,68.2,29.94,SW,225,1.0,1.0,86,0.00,,,0.00,Wunderground v.1.15,2013-07-05 11:30:00,
2013-07-05 07:40:00,73.1,68.3,29.94,SW,225,2.0,4.0,85,0.00,,,0.00,Wunderground v.1.15,2013-07-05 11:40:00,
2013-07-05 07:50:00,72.9,68.1,29.94,WNW,284,3.0,3.0,85,0.00,,,0.00,Wunderground v.1.15,2013-07-05 11:50:00,
2013-07-05 08:00:00,74.1,69.3,29.94,WNW,283,2.0,4.0,85,0.00,,,0.00,Wunderground v.1.15,2013-07-05 12:00:00,
2013-07-05 08:10:00,75.0,69.1,29.95,SW,231,4.0,4.0,82,0.00,,,0.00,Wunderground v.1.15,2013-07-05 12:10:00,
2013-07-05 08:20:00,75.9,69.6,29.96,WSW,256,2.0,5.0,81,0.00,,,0.00,Wunderground v.1.15,2013-07-05 12:20:00,
2013-07-05 08:30:00,76.2,68.5,29.95,West,260,5.0,5.0,77,0.00,,,0.00,Wunderground v.1.15,2013-07-05 12:30:00,
2013-07-05 08:40:00,76.4,69.0,29.95,WNW,288,6.0,8.0,78,0.00,,,0.00,Wunderground v.1.15,2013-07-05 12:40:00,
2013-07-05 08:50:00,76.6,69.2,29.95,SW,232,5.0,7.0,78,0.00,,,0.00,Wunderground v.1.15,2013-07-05 12:50:00,
2013-07-05 09:00:00,76.8,69.4,29.95,West,280,5.0,5.0,78,0.00,,,0.00,Wunderground v.1.15,2013-07-05 13:00:00,
2013-07-05 09:10:00,77.3,69.9,29.95,WNW,290,4.0,7.0,78,0.00,,,0.00,Wunderground v.1.15,2013-07-05 13:10:00,
2013-07-05 09:20:00,78.1,70.3,29.94,West,260,4.0,10.0,77,0.00,,,0.00,Wunderground v.1.15,2013-07-05 13:20:00,
2013-07-05 09:30:00,78.6,70.0,29.94,West,281,6.0,8.0,75,0.00,,,0.00,Wunderground v.1.15,2013-07-05 13:30:00,
2013-07-05 09:40:00,78.7,69.3,29.94,West,261,6.0,7.0,73,0.00,,,0.00,Wunderground v.1.15,2013-07-05 13:40:00,
2013-07-05 09:50:00,79.5,69.7,29.93,WSW,257,5.0,10.0,72,0.00,,,0.00,Wunderground v.1.15,2013-07-05 13:50:00,
2013-07-05 10:00:00,79.2,68.1,29.94,WNW,298,7.0,7.0,69,0.00,,,0.00,Wunderground v.1.15,2013-07-05 14:00:00,
2013-07-05 10:10:00,78.7,68.1,29.94,WSW,252,5.0,5.0,70,0.00,,,0.00,Wunderground v.1.15,2013-07-05 14:10:00,
2013-07-05 10:20:00,78.5,69.1,29.94,NW,309,2.0,2.0,73,0.00,,,0.00,Wunderground v.1.15,2013-07-05 14:20:00,
2013-07-05 10:30:00,78.2,69.2,29.94,West,267,4.0,4.0,74,0.00,,,0.00,Wunderground v.1.15,2013-07-05 14:30:00,
2013-07-05 10:40:00,78.2,68.4,29.93,West,271,2.0,5.0,72,0.00,,,0.00,Wunderground v.1.15,2013-07-05 14:40:00,
2013-07-05 10:50:00,78.1,68.3,29.94,West,259,3.0,9.0,72,0.00,,,0.00,Wunderground v.1.15,2013-07-05 14:50:00,
2013-07-05 11:00:00,78.1,67.9,29.94,West,261,4.0,4.0,71,0.00,,,0.00,Wunderground v.1.15,2013-07-05 15:00:00,
2013-07-05 11:10:00,78.7,70.5,29.94,SW,234,2.0,8.0,76,0.00,,,0.00,Wunderground v.1.15,2013-07-05 15:10:00,
2013-07-05 11:30:00,79.3,68.7,29.94,West,271,5.0,6.0,70,0.00,,,0.00,Wunderground v.1.15,2013-07-05 15:30:00,
2013-07-05 11:40:00,79.4,69.2,29.93,West,265,5.0,5.0,71,0.00,,,0.00,Wunderground v.1.15,2013-07-05 15:40:00,
2013-07-05 11:50:00,79.2,68.1,29.93,WSW,248,4.0,4.0,69,0.00,,,0.00,Wunderground v.1.15,2013-07-05 15:50:00,
2013-07-05 12:00:00,79.6,69.8,29.93,West,279,3.0,7.0,72,0.00,,,0.00,Wunderground v.1.15,2013-07-05 16:00:00,
2013-07-05 12:10:00,80.9,68.5,29.92,WSW,247,5.0,6.0,66,0.00,,,0.00,Wunderground v.1.15,2013-07-05 16:10:00,
2013-07-05 12:20:00,81.3,69.7,29.93,SW,225,6.0,6.0,68,0.00,,,0.00,Wunderground v.1.15,2013-07-05 16:20:00,
2013-07-05 12:30:00,81.5,69.9,29.93,West,271,6.0,7.0,68,0.00,,,0.00,Wunderground v.1.15,2013-07-05 16:30:00,
2013-07-05 12:40:00,81.3,68.4,29.92,SW,219,4.0,9.0,65,0.00,,,0.00,Wunderground v.1.15,2013-07-05 16:40:00,
2013-07-05 12:50:00,81.9,68.5,29.92,WSW,237,8.0,8.0,64,0.00,,,0.00,Wunderground v.1.15,2013-07-05 16:50:00,
2013-07-05 13:00:00,82.6,65.8,29.92,West,263,5.0,6.0,57,0.00,,,0.00,Wunderground v.1.15,2013-07-05 17:00:00,
2013-07-05 13:10:00,81.9,66.6,29.92,WSW,244,6.0,7.0,60,0.00,,,0.00,Wunderground v.1.15,2013-07-05 17:10:00,
2013-07-05 13:20:00,83.1,67.8,29.91,West,272,6.0,7.0,60,0.00,,,0.00,Wunderground v.1.15,2013-07-05 17:20:00,
2013-07-05 13:30:00,83.2,66.9,29.91,West,276,6.0,6.0,58,0.00,,,0.00,Wunderground v.1.15,2013-07-05 17:30:00,
2013-07-05 13:40:00,83.6,68.2,29.91,SW,236,5.0,5.0,60,0.00,,,0.00,Wunderground v.1.15,2013-07-05 17:40:00,
2013-07-05 13:50:00,84.0,68.1,29.91,WSW,247,5.0,5.0,59,0.00,,,0.00,Wunderground v.1.15,2013-07-05 17:50:00,
2013-07-05 14:00:00,84.9,66.9,29.91,WSW,257,7.0,7.0,55,0.00,,,0.00,Wunderground v.1.15,2013-07-05 18:00:00,
2013-07-05 14:10:00,84.6,66.7,29.90,WSW,241,6.0,7.0,55,0.00,,,0.00,Wunderground v.1.15,2013-07-05 18:10:00,
2013-07-05 14:20:00,84.5,64.9,29.90,WNW,295,6.0,6.0,52,0.00,,,0.00,Wunderground v.1.15,2013-07-05 18:20:00,
2013-07-05 14:30:00,85.0,63.1,29.90,WSW,251,7.0,8.0,48,0.00,,,0.00,Wunderground v.1.15,2013-07-05 18:30:00,
2013-07-05 14:40:00,85.6,61.8,29.90,West,279,5.0,10.0,45,0.00,,,0.00,Wunderground v.1.15,2013-07-05 18:40:00,
2013-07-05 14:50:00,85.5,61.1,29.90,SW,236,8.0,9.0,44,0.00,,,0.00,Wunderground v.1.15,2013-07-05 18:50:00,
2013-07-05 15:00:00,86.1,60.3,29.90,WNW,286,6.0,11.0,42,0.00,,,0.00,Wunderground v.1.15,2013-07-05 19:00:00,
2013-07-05 15:10:00,86.1,61.6,29.89,West,265,7.0,11.0,44,0.00,,,0.00,Wunderground v.1.15,2013-07-05 19:10:00,
2013-07-05 15:20:00,86.0,62.2,29.89,SW,227,6.0,6.0,45,0.00,,,0.00,Wunderground v.1.15,2013-07-05 19:20:00,
2013-07-05 15:30:00,86.6,64.0,29.89,WSW,257,4.0,4.0,47,0.00,,,0.00,Wunderground v.1.15,2013-07-05 19:30:00,
2013-07-05 15:40:00,86.9,61.0,29.89,WSW,255,4.0,4.0,42,0.00,,,0.00,Wunderground v.1.15,2013-07-05 19:40:00,
2013-07-05 15:50:00,87.0,60.5,29.88,West,268,6.0,6.0,41,0.00,,,0.00,Wunderground v.1.15,2013-07-05 19:50:00,
2013-07-05 16:00:00,86.2,62.4,29.88,SW,236,5.0,13.0,45,0.00,,,0.00,Wunderground v.1.15,2013-07-05 20:00:00,
2013-07-05 16:10:00,86.5,60.0,29.88,West,276,6.0,9.0,41,0.00,,,0.00,Wunderground v.1.15,2013-07-05 20:10:00,
2013-07-05 16:20:00,86.3,61.8,29.88,West,264,6.0,6.0,44,0.00,,,0.00,Wunderground v.1.15,2013-07-05 20:20:00,
2013-07-05 16:30:00,86.3,61.2,29.88,WSW,250,5.0,11.0,43,0.00,,,0.00,Wunderground v.1.15,2013-07-05 20:30:00,
2013-07-05 16:40:00,86.3,61.2,29.88,West,268,6.0,6.0,43,0.00,,,0.00,Wunderground v.1.15,2013-07-05 20:40:00,
2013-07-05 16:50:00,86.3,61.2,29.88,WSW,246,5.0,5.0,43,0.00,,,0.00,Wunderground v.1.15,2013-07-05 20:50:00,
2013-07-05 17:00:00,85.9,62.1,29.87,SW,219,5.0,11.0,45,0.00,,,0.00,Wunderground v.1.15,2013-07-05 21:00:00,
2013-07-05 17:10:00,85.7,60.6,29.88,West,269,7.0,7.0,43,0.00,,,0.00,Wunderground v.1.15,2013-07-05 21:10:00,
2013-07-05 17:20:00,85.7,61.3,29.88,West,281,7.0,7.0,44,0.00,,,0.00,Wunderground v.1.15,2013-07-05 21:20:00,
2013-07-05 17:30:00,85.6,62.4,29.88,SW,236,4.0,6.0,46,0.00,,,0.00,Wunderground v.1.15,2013-07-05 21:30:00,
2013-07-05 17:40:00,85.2,62.7,29.88,WSW,252,5.0,5.0,47,0.00,,,0.00,Wunderground v.1.15,2013-07-05 21:40:00,
2013-07-05 17:50:00,85.2,62.7,29.88,West,275,5.0,12.0,47,0.00,,,0.00,Wunderground v.1.15,2013-07-05 21:50:00,
2013-07-05 18:00:00,85.1,63.8,29.87,WSW,244,5.0,5.0,49,0.00,,,0.00,Wunderground v.1.15,2013-07-05 22:00:00,
2013-07-05 18:10:00,84.8,64.1,29.87,WSW,257,3.0,4.0,50,0.00,,,0.00,Wunderground v.1.15,2013-07-05 22:10:00,
2013-07-05 18:20:00,84.4,63.7,29.87,WSW,247,4.0,4.0,50,0.00,,,0.00,Wunderground v.1.15,2013-07-05 22:20:00,
2013-07-05 18:30:00,83.9,63.8,29.87,SW,227,2.0,7.0,51,0.00,,,0.00,Wunderground v.1.15,2013-07-05 22:30:00,
2013-07-05 18:40:00,83.8,63.7,29.87,West,267,2.0,2.0,51,0.00,,,0.00,Wunderground v.1.15,2013-07-05 22:40:00,
2013-07-05 18:50:00,83.7,64.2,29.87,West,261,1.0,3.0,52,0.00,,,0.00,Wunderground v.1.15,2013-07-05 22:50:00,
2013-07-05 19:00:00,83.1,66.3,29.87,WSW,244,1.0,1.0,57,0.00,,,0.00,Wunderground v.1.15,2013-07-05 23:00:00,
2013-07-05 19:10:00,81.7,65.5,29.87,SW,227,1.0,1.0,58,0.00,,,0.00,Wunderground v.1.15,2013-07-05 23:10:00,
2013-07-05 19:20:00,80.9,65.7,29.88,SW,215,0.0,0.0,60,0.00,,,0.00,Wunderground v.1.15,2013-07-05 23:20:00,
2013-07-05 19:30:00,80.4,66.2,29.87,SSW,210,0.0,0.0,62,0.00,,,0.00,Wunderground v.1.15,2013-07-05 23:30:00,
2013-07-05 19:40:00,79.6,66.3,29.87,SSW,213,0.0,0.0,64,0.00,,,0.00,Wunderground v.1.15,2013-07-05 23:40:00,
2013-07-05 19:50:00,78.2,66.3,29.87,SSW,213,0.0,0.0,67,0.00,,,0.00,Wunderground v.1.15,2013-07-05 23:50:00,
2013-07-05 20:00:00,76.3,65.8,29.87,SSW,213,0.0,0.0,70,0.00,,,0.00,Wunderground v.1.15,2013-07-06 00:00:00,
2013-07-05 20:10:00,75.5,65.4,29.87,SW,214,0.0,0.0,71,0.00,,,0.00,Wunderground v.1.15,2013-07-06 00:10:00,
2013-07-05 20:20:00,74.7,65.1,29.87,SW,214,0.0,0.0,72,0.00,,,0.00,Wunderground v.1.15,2013-07-06 00:20:00,
2013-07-05 20:30:00,73.9,65.1,29.88,SW,214,0.0,0.0,74,0.00,,,0.00,Wunderground v.1.15,2013-07-06 00:30:00,
2013-07-05 20:40:00,73.8,64.6,29.88,SW,231,0.0,0.0,73,0.00,,,0.00,Wunderground v.1.15,2013-07-06 00:40:00,
2013-07-05 20:50:00,72.5,64.5,29.89,SW,231,0.0,0.0,76,0.00,,,0.00,Wunderground v.1.15,2013-07-06 00:50:00,
2013-07-05 21:00:00,72.5,64.5,29.88,SW,231,0.0,0.0,76,0.00,,,0.00,Wunderground v.1.15,2013-07-06 01:00:00,
2013-07-05 21:10:00,72.0,64.4,29.89,SW,231,0.0,0.0,77,0.00,,,0.00,Wunderground v.1.15,2013-07-06 01:10:00,
2013-07-05 21:20:00,72.0,64.4,29.89,SW,231,0.0,0.0,77,0.00,,,0.00,Wunderground v.1.15,2013-07-06 01:20:00,
2013-07-05 21:30:00,72.5,64.1,29.89,WSW,241,0.0,0.0,75,0.00,,,0.00,Wunderground v.1.15,2013-07-06 01:30:00,
2013-07-05 21:40:00,73.9,64.3,29.89,West,271,0.0,0.0,72,0.00,,,0.00,Wunderground v.1.15,2013-07-06 01:40:00,
2013-07-05 21:50:00,74.7,64.7,29.89,West,271,1.0,3.0,71,0.00,,,0.00,Wunderground v.1.15,2013-07-06 01:50:00,
2013-07-05 22:00:00,74.7,64.7,29.89,SW,236,1.0,1.0,71,0.00,,,0.00,Wunderground v.1.15,2013-07-06 02:00:00,
2013-07-05 22:10:00,73.7,64.5,29.89,SW,236,0.0,0.0,73,0.00,,,0.00,Wunderground v.1.15,2013-07-06 02:10:00,
2013-07-05 22:20:00,73.3,64.5,29.89,WSW,238,0.0,0.0,74,0.00,,,0.00,Wunderground v.1.15,2013-07-06 02:20:00,
2013-07-05 22:30:00,73.9,64.7,29.89,West,277,0.0,0.0,73,0.00,,,0.00,Wunderground v.1.15,2013-07-06 02:30:00,
2013-07-05 22:40:00,73.8,64.6,29.89,West,278,0.0,0.0,73,0.00,,,0.00,Wunderground v.1.15,2013-07-06 02:40:00,
2013-07-05 22:50:00,73.6,64.8,29.89,West,277,0.0,0.0,74,0.00,,,0.00,Wunderground v.1.15,2013-07-06 02:50:00,
2013-07-05 23:00:00,73.5,64.7,29.89,West,269,0.0,0.0,74,0.00,,,0.00,Wunderground v.1.15,2013-07-06 03:00:00,
2013-07-05 23:10:00,73.5,64.7,29.89,West,279,1.0,1.0,74,0.00,,,0.00,Wunderground v.1.15,2013-07-06 03:10:00,
2013-07-05 23:20:00,73.8,65.0,29.89,West,261,3.0,4.0,74,0.00,,,0.00,Wunderground v.1.15,2013-07-06 03:20:00,
2013-07-05 23:30:00,73.3,64.9,29.89,WSW,244,1.0,1.0,75,0.00,,,0.00,Wunderground v.1.15,2013-07-06 03:30:00,
2013-07-05 23:40:00,73.2,64.8,29.90,West,261,1.0,1.0,75,0.00,,,0.00,Wunderground v.1.15,2013-07-06 03:40:00,
2013-07-05 23:50:00,73.0,65.0,29.90,West,265,1.0,1.0,76,0.00,,,0.00,Wunderground v.1.15,2013-07-06 03:50:00,